sensor_id;sensor_type;location;lat;lon;timestamp;temperature;humidity
23507;DHT22;11930;53.076;18.250;2022-10-28T00:00:26;6.70;99.90
23507;DHT22;11930;53.076;18.250;2022-10-28T00:03:12;6.60;99.90
23507;DHT22;11930;53.076;18.250;2022-10-28T00:05:38;6.60;99.90
23507;DHT22;11930;53.076;18.250;2022-10-28T00:08:05;6.60;99.90
23507;DHT22;11930;53.076;18.250;2022-10-28T00:10:32;6.50;99.90
23507;DHT22;11930;53.076;18.250;2022-10-28T00:12:58;6.50;99.90
23507;DHT22;11930;53.076;18.250;2022-10-28T00:15:24;6.40;99.90
23507;DHT22;11930;53.076;18.250;2022-10-28T00:17:50;6.40;99.90
23507;DHT22;11930;53.076;18.250;2022-10-28T00:20:16;6.40;99.90
23507;DHT22;11930;53.076;18.250;2022-10-28T00:22:42;6.40;99.90
23507;DHT22;11930;53.076;18.250;2022-10-28T00:25:09;6.50;99.90
23507;DHT22;11930;53.076;18.250;2022-10-28T00:27:35;6.50;99.90
23507;DHT22;11930;53.076;18.250;2022-10-28T00:30:02;6.50;99.90
23507;DHT22;11930;53.076;18.250;2022-10-28T00:32:29;6.50;99.90
23507;DHT22;11930;53.076;18.250;2022-10-28T00:34:56;6.50;99.90
23507;DHT22;11930;53.076;18.250;2022-10-28T00:37:22;6.60;99.90
23507;DHT22;11930;53.076;18.250;2022-10-28T00:39:48;6.60;99.90
23507;DHT22;11930;53.076;18.250;2022-10-28T00:42:17;6.70;99.90
23507;DHT22;11930;53.076;18.250;2022-10-28T00:44:56;6.70;99.90
23507;DHT22;11930;53.076;18.250;2022-10-28T00:52:42;6.70;99.90
23507;DHT22;11930;53.076;18.250;2022-10-28T00:55:09;6.70;99.90
23507;DHT22;11930;53.076;18.250;2022-10-28T00:57:37;6.70;99.90
23507;DHT22;11930;53.076;18.250;2022-10-28T01:00:05;6.80;99.90
23507;DHT22;11930;53.076;18.250;2022-10-28T01:02:36;6.80;99.90
23507;DHT22;11930;53.076;18.250;2022-10-28T01:05:07;6.80;99.90
23507;DHT22;11930;53.076;18.250;2022-10-28T01:07:33;6.90;99.90
23507;DHT22;11930;53.076;18.250;2022-10-28T01:10:00;6.90;99.90
23507;DHT22;11930;53.076;18.250;2022-10-28T01:15:09;6.90;99.90
23507;DHT22;11930;53.076;18.250;2022-10-28T01:20:43;7.00;99.90
23507;DHT22;11930;53.076;18.250;2022-10-28T01:23:36;6.90;99.90
23507;DHT22;11930;53.076;18.250;2022-10-28T01:26:28;7.00;99.90
23507;DHT22;11930;53.076;18.250;2022-10-28T01:31:56;7.00;99.90
23507;DHT22;11930;53.076;18.250;2022-10-28T01:34:35;7.00;99.90
23507;DHT22;11930;53.076;18.250;2022-10-28T01:37:15;7.10;99.90
23507;DHT22;11930;53.076;18.250;2022-10-28T01:45:20;7.20;99.90
23507;DHT22;11930;53.076;18.250;2022-10-28T01:48:01;7.20;99.90
23507;DHT22;11930;53.076;18.250;2022-10-28T01:50:43;7.30;99.90
23507;DHT22;11930;53.076;18.250;2022-10-28T01:53:14;7.30;99.90
23507;DHT22;11930;53.076;18.250;2022-10-28T01:55:44;7.30;99.90
23507;DHT22;11930;53.076;18.250;2022-10-28T01:58:16;7.40;99.90
23507;DHT22;11930;53.076;18.250;2022-10-28T02:00:44;7.40;99.90
23507;DHT22;11930;53.076;18.250;2022-10-28T02:03:11;7.40;99.90
23507;DHT22;11930;53.076;18.250;2022-10-28T02:11:11;7.50;99.90
23507;DHT22;11930;53.076;18.250;2022-10-28T02:16:46;7.50;99.90
23507;DHT22;11930;53.076;18.250;2022-10-28T02:26:53;7.70;99.90
23507;DHT22;11930;53.076;18.250;2022-10-28T02:29:30;7.70;99.90
23507;DHT22;11930;53.076;18.250;2022-10-28T02:32:02;7.70;99.90
23507;DHT22;11930;53.076;18.250;2022-10-28T02:34:32;7.70;99.90
23507;DHT22;11930;53.076;18.250;2022-10-28T02:37:04;7.70;99.90
23507;DHT22;11930;53.076;18.250;2022-10-28T02:39:35;7.60;99.90
23507;DHT22;11930;53.076;18.250;2022-10-28T02:42:07;7.60;99.90
23507;DHT22;11930;53.076;18.250;2022-10-28T02:44:39;7.60;99.90
23507;DHT22;11930;53.076;18.250;2022-10-28T02:47:14;7.70;99.90
23507;DHT22;11930;53.076;18.250;2022-10-28T02:49:45;7.60;99.90
23507;DHT22;11930;53.076;18.250;2022-10-28T02:52:13;7.70;99.90
23507;DHT22;11930;53.076;18.250;2022-10-28T02:54:44;7.70;99.90
23507;DHT22;11930;53.076;18.250;2022-10-28T02:57:18;7.70;99.90
23507;DHT22;11930;53.076;18.250;2022-10-28T02:59:56;7.80;99.90
23507;DHT22;11930;53.076;18.250;2022-10-28T03:02:23;7.70;99.90
23507;DHT22;11930;53.076;18.250;2022-10-28T03:04:49;7.70;99.90
23507;DHT22;11930;53.076;18.250;2022-10-28T03:07:16;7.70;99.90
23507;DHT22;11930;53.076;18.250;2022-10-28T03:09:42;7.70;99.90
23507;DHT22;11930;53.076;18.250;2022-10-28T03:12:08;7.80;99.90
23507;DHT22;11930;53.076;18.250;2022-10-28T03:14:34;7.80;99.90
23507;DHT22;11930;53.076;18.250;2022-10-28T03:17:00;7.80;99.90
23507;DHT22;11930;53.076;18.250;2022-10-28T03:19:27;7.80;99.90
23507;DHT22;11930;53.076;18.250;2022-10-28T03:21:53;7.90;99.90
23507;DHT22;11930;53.076;18.250;2022-10-28T03:24:19;7.90;99.90
23507;DHT22;11930;53.076;18.250;2022-10-28T03:26:46;7.90;99.90
23507;DHT22;11930;53.076;18.250;2022-10-28T03:29:12;7.90;99.90
23507;DHT22;11930;53.076;18.250;2022-10-28T03:31:38;7.90;99.90
23507;DHT22;11930;53.076;18.250;2022-10-28T03:34:04;8.00;99.90
23507;DHT22;11930;53.076;18.250;2022-10-28T03:36:30;8.00;99.90
23507;DHT22;11930;53.076;18.250;2022-10-28T03:38:56;8.10;99.90
23507;DHT22;11930;53.076;18.250;2022-10-28T03:41:22;8.10;99.90
23507;DHT22;11930;53.076;18.250;2022-10-28T03:43:48;8.20;99.90
23507;DHT22;11930;53.076;18.250;2022-10-28T03:46:14;8.20;99.90
23507;DHT22;11930;53.076;18.250;2022-10-28T03:48:40;8.20;99.90
23507;DHT22;11930;53.076;18.250;2022-10-28T03:51:06;8.30;99.90
23507;DHT22;11930;53.076;18.250;2022-10-28T03:53:32;8.30;99.90
23507;DHT22;11930;53.076;18.250;2022-10-28T03:56:00;8.30;99.90
23507;DHT22;11930;53.076;18.250;2022-10-28T03:58:26;8.20;99.90
23507;DHT22;11930;53.076;18.250;2022-10-28T04:00:53;8.20;99.90
23507;DHT22;11930;53.076;18.250;2022-10-28T04:03:20;8.20;99.90
23507;DHT22;11930;53.076;18.250;2022-10-28T04:05:50;8.30;99.90
23507;DHT22;11930;53.076;18.250;2022-10-28T04:08:37;7.30;99.90
23507;DHT22;11930;53.076;18.250;2022-10-28T04:11:36;8.30;99.90
23507;DHT22;11930;53.076;18.250;2022-10-28T04:14:05;8.30;99.90
23507;DHT22;11930;53.076;18.250;2022-10-28T04:16:50;8.40;99.90
23507;DHT22;11930;53.076;18.250;2022-10-28T04:19:16;8.40;99.90
23507;DHT22;11930;53.076;18.250;2022-10-28T04:21:42;8.40;99.90
23507;DHT22;11930;53.076;18.250;2022-10-28T04:24:08;8.40;99.90
23507;DHT22;11930;53.076;18.250;2022-10-28T04:26:34;8.40;99.90
23507;DHT22;11930;53.076;18.250;2022-10-28T04:29:00;8.40;99.90
23507;DHT22;11930;53.076;18.250;2022-10-28T04:31:26;8.40;99.90
23507;DHT22;11930;53.076;18.250;2022-10-28T04:33:52;8.50;99.90
23507;DHT22;11930;53.076;18.250;2022-10-28T04:36:18;8.60;99.90
23507;DHT22;11930;53.076;18.250;2022-10-28T04:38:44;8.60;99.90
23507;DHT22;11930;53.076;18.250;2022-10-28T04:41:13;8.70;99.90
23507;DHT22;11930;53.076;18.250;2022-10-28T04:43:40;8.70;99.90
23507;DHT22;11930;53.076;18.250;2022-10-28T04:46:06;8.70;99.90
23507;DHT22;11930;53.076;18.250;2022-10-28T04:48:32;8.70;99.90
23507;DHT22;11930;53.076;18.250;2022-10-28T04:50:59;8.60;99.90
23507;DHT22;11930;53.076;18.250;2022-10-28T04:53:25;8.70;99.90
23507;DHT22;11930;53.076;18.250;2022-10-28T04:55:55;8.60;99.90
23507;DHT22;11930;53.076;18.250;2022-10-28T04:58:21;8.60;99.90
23507;DHT22;11930;53.076;18.250;2022-10-28T05:00:46;8.60;99.90
23507;DHT22;11930;53.076;18.250;2022-10-28T05:03:13;8.60;99.90
23507;DHT22;11930;53.076;18.250;2022-10-28T05:05:38;8.60;99.90
23507;DHT22;11930;53.076;18.250;2022-10-28T05:08:05;8.60;99.90
23507;DHT22;11930;53.076;18.250;2022-10-28T05:10:32;8.60;99.90
23507;DHT22;11930;53.076;18.250;2022-10-28T05:12:59;8.60;99.90
23507;DHT22;11930;53.076;18.250;2022-10-28T05:15:25;8.60;99.90
23507;DHT22;11930;53.076;18.250;2022-10-28T05:17:51;8.50;99.90
23507;DHT22;11930;53.076;18.250;2022-10-28T05:20:19;8.50;99.90
23507;DHT22;11930;53.076;18.250;2022-10-28T05:22:49;8.50;99.90
23507;DHT22;11930;53.076;18.250;2022-10-28T05:25:17;8.50;99.90
23507;DHT22;11930;53.076;18.250;2022-10-28T05:27:44;8.50;99.90
23507;DHT22;11930;53.076;18.250;2022-10-28T05:30:11;8.50;99.90
23507;DHT22;11930;53.076;18.250;2022-10-28T05:32:39;8.60;99.90
23507;DHT22;11930;53.076;18.250;2022-10-28T05:35:07;8.60;99.90
23507;DHT22;11930;53.076;18.250;2022-10-28T05:37:34;8.70;99.90
23507;DHT22;11930;53.076;18.250;2022-10-28T05:40:00;8.70;99.90
23507;DHT22;11930;53.076;18.250;2022-10-28T05:42:26;8.70;99.90
23507;DHT22;11930;53.076;18.250;2022-10-28T05:44:52;8.60;99.90
23507;DHT22;11930;53.076;18.250;2022-10-28T05:47:19;8.50;99.90
23507;DHT22;11930;53.076;18.250;2022-10-28T05:49:44;8.50;99.90
23507;DHT22;11930;53.076;18.250;2022-10-28T05:52:10;8.50;99.90
23507;DHT22;11930;53.076;18.250;2022-10-28T05:54:36;8.50;99.90
23507;DHT22;11930;53.076;18.250;2022-10-28T05:57:02;8.50;99.90
23507;DHT22;11930;53.076;18.250;2022-10-28T05:59:28;8.40;99.90
23507;DHT22;11930;53.076;18.250;2022-10-28T06:01:54;8.40;99.90
23507;DHT22;11930;53.076;18.250;2022-10-28T06:04:20;8.40;99.90
23507;DHT22;11930;53.076;18.250;2022-10-28T06:06:46;8.40;99.90
23507;DHT22;11930;53.076;18.250;2022-10-28T06:09:12;8.40;99.90
23507;DHT22;11930;53.076;18.250;2022-10-28T06:11:38;8.40;99.90
23507;DHT22;11930;53.076;18.250;2022-10-28T06:14:04;8.50;99.90
23507;DHT22;11930;53.076;18.250;2022-10-28T06:16:30;8.50;99.90
23507;DHT22;11930;53.076;18.250;2022-10-28T06:18:56;8.50;99.90
23507;DHT22;11930;53.076;18.250;2022-10-28T06:21:23;8.50;99.90
23507;DHT22;11930;53.076;18.250;2022-10-28T06:23:49;8.50;99.90
23507;DHT22;11930;53.076;18.250;2022-10-28T06:26:15;8.50;99.90
23507;DHT22;11930;53.076;18.250;2022-10-28T06:28:41;8.60;99.90
23507;DHT22;11930;53.076;18.250;2022-10-28T06:31:08;8.60;99.90
23507;DHT22;11930;53.076;18.250;2022-10-28T06:33:34;8.60;99.90
23507;DHT22;11930;53.076;18.250;2022-10-28T06:36:00;8.60;99.90
23507;DHT22;11930;53.076;18.250;2022-10-28T06:38:27;8.60;99.90
23507;DHT22;11930;53.076;18.250;2022-10-28T06:40:56;8.70;99.90
23507;DHT22;11930;53.076;18.250;2022-10-28T06:43:23;8.60;99.90
23507;DHT22;11930;53.076;18.250;2022-10-28T06:45:49;8.70;99.90
23507;DHT22;11930;53.076;18.250;2022-10-28T06:48:20;8.90;99.90
23507;DHT22;11930;53.076;18.250;2022-10-28T06:50:46;9.20;99.90
23507;DHT22;11930;53.076;18.250;2022-10-28T06:53:12;9.50;99.90
23507;DHT22;11930;53.076;18.250;2022-10-28T06:55:38;9.80;99.90
23507;DHT22;11930;53.076;18.250;2022-10-28T06:58:04;10.10;99.90
23507;DHT22;11930;53.076;18.250;2022-10-28T07:00:41;10.60;99.90
23507;DHT22;11930;53.076;18.250;2022-10-28T07:03:08;10.80;99.90
23507;DHT22;11930;53.076;18.250;2022-10-28T07:05:34;11.20;99.90
23507;DHT22;11930;53.076;18.250;2022-10-28T07:08:00;11.60;99.90
23507;DHT22;11930;53.076;18.250;2022-10-28T07:10:26;12.10;99.90
23507;DHT22;11930;53.076;18.250;2022-10-28T07:12:52;12.30;99.90
23507;DHT22;11930;53.076;18.250;2022-10-28T07:15:18;12.70;99.90
23507;DHT22;11930;53.076;18.250;2022-10-28T07:17:51;13.20;99.90
23507;DHT22;11930;53.076;18.250;2022-10-28T07:20:17;14.10;99.90
23507;DHT22;11930;53.076;18.250;2022-10-28T07:22:43;14.60;99.90
23507;DHT22;11930;53.076;18.250;2022-10-28T07:25:09;15.10;99.90
23507;DHT22;11930;53.076;18.250;2022-10-28T07:27:35;15.80;99.90
23507;DHT22;11930;53.076;18.250;2022-10-28T07:30:01;16.10;99.90
23507;DHT22;11930;53.076;18.250;2022-10-28T07:32:31;16.30;99.90
23507;DHT22;11930;53.076;18.250;2022-10-28T07:34:57;16.70;99.90
23507;DHT22;11930;53.076;18.250;2022-10-28T07:37:23;16.90;99.90
23507;DHT22;11930;53.076;18.250;2022-10-28T07:39:49;17.20;99.90
23507;DHT22;11930;53.076;18.250;2022-10-28T07:42:15;17.70;99.90
23507;DHT22;11930;53.076;18.250;2022-10-28T07:44:41;17.90;99.90
23507;DHT22;11930;53.076;18.250;2022-10-28T07:47:07;17.80;99.90
23507;DHT22;11930;53.076;18.250;2022-10-28T07:49:33;18.40;99.90
23507;DHT22;11930;53.076;18.250;2022-10-28T07:51:59;19.40;99.90
23507;DHT22;11930;53.076;18.250;2022-10-28T07:54:26;19.90;99.90
23507;DHT22;11930;53.076;18.250;2022-10-28T07:56:52;20.10;99.90
23507;DHT22;11930;53.076;18.250;2022-10-28T07:59:18;19.60;99.90
23507;DHT22;11930;53.076;18.250;2022-10-28T08:01:45;19.20;99.90
23507;DHT22;11930;53.076;18.250;2022-10-28T08:04:12;19.50;99.90
23507;DHT22;11930;53.076;18.250;2022-10-28T08:06:38;19.60;99.90
23507;DHT22;11930;53.076;18.250;2022-10-28T08:09:04;20.10;99.90
23507;DHT22;11930;53.076;18.250;2022-10-28T08:11:30;20.20;99.90
23507;DHT22;11930;53.076;18.250;2022-10-28T08:13:56;20.70;99.90
23507;DHT22;11930;53.076;18.250;2022-10-28T08:16:22;21.00;99.90
23507;DHT22;11930;53.076;18.250;2022-10-28T08:18:48;20.90;99.90
23507;DHT22;11930;53.076;18.250;2022-10-28T08:21:17;20.30;99.90
23507;DHT22;11930;53.076;18.250;2022-10-28T08:23:43;19.90;99.90
23507;DHT22;11930;53.076;18.250;2022-10-28T08:26:13;20.00;99.90
23507;DHT22;11930;53.076;18.250;2022-10-28T08:28:39;20.20;99.90
23507;DHT22;11930;53.076;18.250;2022-10-28T08:31:08;20.90;99.90
23507;DHT22;11930;53.076;18.250;2022-10-28T08:33:39;21.60;99.90
23507;DHT22;11930;53.076;18.250;2022-10-28T08:36:06;21.50;99.90
23507;DHT22;11930;53.076;18.250;2022-10-28T08:38:33;21.70;99.90
23507;DHT22;11930;53.076;18.250;2022-10-28T08:44:08;22.00;99.90
23507;DHT22;11930;53.076;18.250;2022-10-28T08:49:31;22.20;99.90
23507;DHT22;11930;53.076;18.250;2022-10-28T08:52:32;22.10;99.90
23507;DHT22;11930;53.076;18.250;2022-10-28T08:55:16;22.30;99.90
23507;DHT22;11930;53.076;18.250;2022-10-28T08:57:51;22.40;99.90
23507;DHT22;11930;53.076;18.250;2022-10-28T09:00:22;21.30;99.90
23507;DHT22;11930;53.076;18.250;2022-10-28T09:05:37;20.20;99.90
23507;DHT22;11930;53.076;18.250;2022-10-28T09:08:05;19.80;99.90
23507;DHT22;11930;53.076;18.250;2022-10-28T09:16:48;18.50;99.90
23507;DHT22;11930;53.076;18.250;2022-10-28T09:19:30;18.70;99.90
23507;DHT22;11930;53.076;18.250;2022-10-28T09:22:19;18.80;99.90
23507;DHT22;11930;53.076;18.250;2022-10-28T09:30:51;21.90;99.90
23507;DHT22;11930;53.076;18.250;2022-10-28T09:33:38;22.60;99.90
23507;DHT22;11930;53.076;18.250;2022-10-28T09:36:12;22.20;99.90
23507;DHT22;11930;53.076;18.250;2022-10-28T09:38:39;21.70;99.90
23507;DHT22;11930;53.076;18.250;2022-10-28T09:41:21;22.10;99.90
23507;DHT22;11930;53.076;18.250;2022-10-28T09:44:00;21.90;99.90
23507;DHT22;11930;53.076;18.250;2022-10-28T09:46:29;21.90;99.90
23507;DHT22;11930;53.076;18.250;2022-10-28T09:49:01;23.00;99.90
23507;DHT22;11930;53.076;18.250;2022-10-28T09:51:42;23.10;99.90
23507;DHT22;11930;53.076;18.250;2022-10-28T09:54:11;22.30;99.90
23507;DHT22;11930;53.076;18.250;2022-10-28T09:56:38;21.60;99.90
23507;DHT22;11930;53.076;18.250;2022-10-28T09:59:04;21.10;99.90
23507;DHT22;11930;53.076;18.250;2022-10-28T10:01:33;20.90;99.90
23507;DHT22;11930;53.076;18.250;2022-10-28T10:04:00;20.40;99.90
23507;DHT22;11930;53.076;18.250;2022-10-28T10:06:36;20.00;99.90
23507;DHT22;11930;53.076;18.250;2022-10-28T10:09:04;19.70;99.90
23507;DHT22;11930;53.076;18.250;2022-10-28T10:11:45;20.20;99.90
23507;DHT22;11930;53.076;18.250;2022-10-28T10:14:27;19.90;99.90
23507;DHT22;11930;53.076;18.250;2022-10-28T10:16:59;19.40;99.90
23507;DHT22;11930;53.076;18.250;2022-10-28T10:19:52;19.40;99.90
23507;DHT22;11930;53.076;18.250;2022-10-28T10:25:01;19.20;99.90
23507;DHT22;11930;53.076;18.250;2022-10-28T10:27:29;19.10;99.90
23507;DHT22;11930;53.076;18.250;2022-10-28T10:29:56;18.90;99.90
23507;DHT22;11930;53.076;18.250;2022-10-28T10:32:30;18.80;99.90
23507;DHT22;11930;53.076;18.250;2022-10-28T10:37:41;18.80;99.90
23507;DHT22;11930;53.076;18.250;2022-10-28T10:42:52;18.70;99.90
23507;DHT22;11930;53.076;18.250;2022-10-28T10:45:22;18.70;99.90
23507;DHT22;11930;53.076;18.250;2022-10-28T10:48:14;18.70;99.90
23507;DHT22;11930;53.076;18.250;2022-10-28T10:50:49;18.60;99.90
23507;DHT22;11930;53.076;18.250;2022-10-28T10:53:24;18.50;99.90
23507;DHT22;11930;53.076;18.250;2022-10-28T10:55:53;18.50;99.90
23507;DHT22;11930;53.076;18.250;2022-10-28T10:58:23;18.10;99.90
23507;DHT22;11930;53.076;18.250;2022-10-28T11:00:51;18.10;99.90
23507;DHT22;11930;53.076;18.250;2022-10-28T11:03:23;18.10;99.90
23507;DHT22;11930;53.076;18.250;2022-10-28T11:06:03;17.80;99.90
23507;DHT22;11930;53.076;18.250;2022-10-28T11:08:40;17.70;99.90
23507;DHT22;11930;53.076;18.250;2022-10-28T11:11:20;17.60;99.90
23507;DHT22;11930;53.076;18.250;2022-10-28T11:13:48;17.50;99.90
23507;DHT22;11930;53.076;18.250;2022-10-28T11:16:26;17.30;99.90
23507;DHT22;11930;53.076;18.250;2022-10-28T11:18:53;17.20;99.90
23507;DHT22;11930;53.076;18.250;2022-10-28T11:24:35;17.00;99.90
23507;DHT22;11930;53.076;18.250;2022-10-28T11:27:12;17.00;99.90
23507;DHT22;11930;53.076;18.250;2022-10-28T11:29:43;16.80;99.90
23507;DHT22;11930;53.076;18.250;2022-10-28T11:37:52;16.50;99.90
23507;DHT22;11930;53.076;18.250;2022-10-28T11:40:42;16.60;99.90
23507;DHT22;11930;53.076;18.250;2022-10-28T11:55:23;16.70;99.90
23507;DHT22;11930;53.076;18.250;2022-10-28T12:09:16;17.00;99.90
23507;DHT22;11930;53.076;18.250;2022-10-28T12:11:28;17.10;99.90
23507;DHT22;11930;53.076;18.250;2022-10-28T12:17:17;17.50;99.90
23507;DHT22;11930;53.076;18.250;2022-10-28T12:19:58;17.60;99.90
23507;DHT22;11930;53.076;18.250;2022-10-28T12:25:00;17.80;99.90
23507;DHT22;11930;53.076;18.250;2022-10-28T12:27:31;18.00;99.90
23507;DHT22;11930;53.076;18.250;2022-10-28T12:30:04;18.10;99.90
23507;DHT22;11930;53.076;18.250;2022-10-28T12:32:33;18.00;99.90
23507;DHT22;11930;53.076;18.250;2022-10-28T12:35:17;18.00;99.90
23507;DHT22;11930;53.076;18.250;2022-10-28T12:37:55;17.90;99.90
23507;DHT22;11930;53.076;18.250;2022-10-28T12:40:25;17.90;99.90
23507;DHT22;11930;53.076;18.250;2022-10-28T12:45:25;17.70;99.90
23507;DHT22;11930;53.076;18.250;2022-10-28T12:47:54;17.60;99.90
23507;DHT22;11930;53.076;18.250;2022-10-28T12:50:37;17.60;99.90
23507;DHT22;11930;53.076;18.250;2022-10-28T13:00:45;18.00;99.90
23507;DHT22;11930;53.076;18.250;2022-10-28T13:03:14;18.20;99.90
23507;DHT22;11930;53.076;18.250;2022-10-28T13:20:06;18.40;99.90
23507;DHT22;11930;53.076;18.250;2022-10-28T13:25:42;18.40;99.90
23507;DHT22;11930;53.076;18.250;2022-10-28T13:28:14;18.60;99.90
23507;DHT22;11930;53.076;18.250;2022-10-28T13:31:12;18.60;99.90
23507;DHT22;11930;53.076;18.250;2022-10-28T13:33:53;18.50;99.90
23507;DHT22;11930;53.076;18.250;2022-10-28T13:36:29;18.40;99.90
23507;DHT22;11930;53.076;18.250;2022-10-28T13:38:59;18.30;99.90
23507;DHT22;11930;53.076;18.250;2022-10-28T13:41:43;18.20;99.90
23507;DHT22;11930;53.076;18.250;2022-10-28T13:49:33;17.90;99.90
23507;DHT22;11930;53.076;18.250;2022-10-28T13:52:20;17.90;99.90
23507;DHT22;11930;53.076;18.250;2022-10-28T13:57:56;17.80;99.90
23507;DHT22;11930;53.076;18.250;2022-10-28T14:03:05;17.80;99.90
23507;DHT22;11930;53.076;18.250;2022-10-28T14:11:05;18.00;99.90
23507;DHT22;11930;53.076;18.250;2022-10-28T14:13:38;18.00;99.90
23507;DHT22;11930;53.076;18.250;2022-10-28T14:16:36;18.00;99.90
23507;DHT22;11930;53.076;18.250;2022-10-28T14:21:58;17.90;99.90
23507;DHT22;11930;53.076;18.250;2022-10-28T14:24:40;17.90;99.90
23507;DHT22;11930;53.076;18.250;2022-10-28T14:29:44;17.70;99.90
23507;DHT22;11930;53.076;18.250;2022-10-28T14:35:02;17.60;99.90
23507;DHT22;11930;53.076;18.250;2022-10-28T14:40:53;17.40;99.90
23507;DHT22;11930;53.076;18.250;2022-10-28T14:44:10;17.30;99.90
23507;DHT22;11930;53.076;18.250;2022-10-28T14:46:31;17.30;99.90
23507;DHT22;11930;53.076;18.250;2022-10-28T14:49:02;17.20;99.90
23507;DHT22;11930;53.076;18.250;2022-10-28T14:51:38;17.10;99.90
23507;DHT22;11930;53.076;18.250;2022-10-28T14:54:13;17.00;99.90
23507;DHT22;11930;53.076;18.250;2022-10-28T14:56:40;17.00;99.90
23507;DHT22;11930;53.076;18.250;2022-10-28T14:59:39;17.00;99.90
23507;DHT22;11930;53.076;18.250;2022-10-28T15:02:17;16.90;99.90
23507;DHT22;11930;53.076;18.250;2022-10-28T15:04:46;16.70;99.90
23507;DHT22;11930;53.076;18.250;2022-10-28T15:07:15;16.70;99.90
23507;DHT22;11930;53.076;18.250;2022-10-28T15:09:44;16.70;99.90
23507;DHT22;11930;53.076;18.250;2022-10-28T15:12:14;16.60;99.90
23507;DHT22;11930;53.076;18.250;2022-10-28T15:14:50;16.60;99.90
23507;DHT22;11930;53.076;18.250;2022-10-28T15:19:48;16.60;99.90
23507;DHT22;11930;53.076;18.250;2022-10-28T15:22:29;16.60;99.90
23507;DHT22;11930;53.076;18.250;2022-10-28T15:25:00;16.50;99.90
23507;DHT22;11930;53.076;18.250;2022-10-28T15:27:32;16.60;99.90
23507;DHT22;11930;53.076;18.250;2022-10-28T15:29:59;16.70;99.90
23507;DHT22;11930;53.076;18.250;2022-10-28T15:32:27;16.70;99.90
23507;DHT22;11930;53.076;18.250;2022-10-28T15:34:57;16.60;99.90
23507;DHT22;11930;53.076;18.250;2022-10-28T15:37:28;16.60;99.90
23507;DHT22;11930;53.076;18.250;2022-10-28T15:43:01;16.40;99.90
23507;DHT22;11930;53.076;18.250;2022-10-28T15:45:30;16.30;99.90
23507;DHT22;11930;53.076;18.250;2022-10-28T15:47:57;16.20;99.90
23507;DHT22;11930;53.076;18.250;2022-10-28T15:50:28;16.10;99.90
23507;DHT22;11930;53.076;18.250;2022-10-28T15:56:16;15.80;99.90
23507;DHT22;11930;53.076;18.250;2022-10-28T15:58:59;15.70;99.90
23507;DHT22;11930;53.076;18.250;2022-10-28T16:07:06;15.60;99.90
23507;DHT22;11930;53.076;18.250;2022-10-28T16:09:41;15.70;99.90
23507;DHT22;11930;53.076;18.250;2022-10-28T16:12:16;15.70;99.90
23507;DHT22;11930;53.076;18.250;2022-10-28T16:15:02;15.70;99.90
23507;DHT22;11930;53.076;18.250;2022-10-28T16:17:30;15.70;99.90
23507;DHT22;11930;53.076;18.250;2022-10-28T16:20:13;15.60;99.90
23507;DHT22;11930;53.076;18.250;2022-10-28T16:22:41;15.70;99.90
23507;DHT22;11930;53.076;18.250;2022-10-28T16:25:18;15.70;99.90
23507;DHT22;11930;53.076;18.250;2022-10-28T16:27:45;15.60;99.90
23507;DHT22;11930;53.076;18.250;2022-10-28T16:30:12;15.60;99.90
23507;DHT22;11930;53.076;18.250;2022-10-28T16:32:40;15.60;99.90
23507;DHT22;11930;53.076;18.250;2022-10-28T16:35:22;15.50;99.90
23507;DHT22;11930;53.076;18.250;2022-10-28T16:37:49;15.50;99.90
23507;DHT22;11930;53.076;18.250;2022-10-28T16:40:16;15.40;99.90
23507;DHT22;11930;53.076;18.250;2022-10-28T16:42:42;15.50;99.90
23507;DHT22;11930;53.076;18.250;2022-10-28T16:45:15;15.50;99.90
23507;DHT22;11930;53.076;18.250;2022-10-28T16:47:42;15.50;99.90
23507;DHT22;11930;53.076;18.250;2022-10-28T16:50:08;15.50;99.90
23507;DHT22;11930;53.076;18.250;2022-10-28T16:52:35;15.50;99.90
23507;DHT22;11930;53.076;18.250;2022-10-28T16:55:01;15.60;99.90
23507;DHT22;11930;53.076;18.250;2022-10-28T16:57:28;15.60;99.90
23507;DHT22;11930;53.076;18.250;2022-10-28T16:59:54;15.60;99.90
23507;DHT22;11930;53.076;18.250;2022-10-28T17:02:29;15.60;99.90
23507;DHT22;11930;53.076;18.250;2022-10-28T17:04:57;15.60;99.90
23507;DHT22;11930;53.076;18.250;2022-10-28T17:07:23;15.70;99.90
23507;DHT22;11930;53.076;18.250;2022-10-28T17:10:14;15.60;99.90
23507;DHT22;11930;53.076;18.250;2022-10-28T17:12:41;15.60;99.90
23507;DHT22;11930;53.076;18.250;2022-10-28T17:15:08;15.60;99.90
23507;DHT22;11930;53.076;18.250;2022-10-28T17:17:34;15.70;99.90
23507;DHT22;11930;53.076;18.250;2022-10-28T17:20:00;15.80;99.90
23507;DHT22;11930;53.076;18.250;2022-10-28T17:22:29;15.70;99.90
23507;DHT22;11930;53.076;18.250;2022-10-28T17:24:55;15.70;99.90
23507;DHT22;11930;53.076;18.250;2022-10-28T17:27:21;15.70;99.90
23507;DHT22;11930;53.076;18.250;2022-10-28T17:29:47;15.70;99.90
23507;DHT22;11930;53.076;18.250;2022-10-28T17:32:13;15.70;99.90
23507;DHT22;11930;53.076;18.250;2022-10-28T17:34:39;15.70;99.90
23507;DHT22;11930;53.076;18.250;2022-10-28T17:37:06;15.70;99.90
23507;DHT22;11930;53.076;18.250;2022-10-28T17:39:32;15.70;99.90
23507;DHT22;11930;53.076;18.250;2022-10-28T17:41:58;15.60;99.90
23507;DHT22;11930;53.076;18.250;2022-10-28T17:44:25;15.60;99.90
23507;DHT22;11930;53.076;18.250;2022-10-28T17:46:51;15.60;99.90
23507;DHT22;11930;53.076;18.250;2022-10-28T17:49:17;15.60;99.90
23507;DHT22;11930;53.076;18.250;2022-10-28T17:51:44;15.60;99.90
23507;DHT22;11930;53.076;18.250;2022-10-28T17:54:10;15.60;99.90
23507;DHT22;11930;53.076;18.250;2022-10-28T17:56:36;15.50;99.90
23507;DHT22;11930;53.076;18.250;2022-10-28T17:59:04;15.50;99.90
23507;DHT22;11930;53.076;18.250;2022-10-28T18:01:32;15.50;99.90
23507;DHT22;11930;53.076;18.250;2022-10-28T18:03:59;15.50;99.90
23507;DHT22;11930;53.076;18.250;2022-10-28T18:06:25;15.60;99.90
23507;DHT22;11930;53.076;18.250;2022-10-28T18:08:51;15.60;99.90
23507;DHT22;11930;53.076;18.250;2022-10-28T18:11:18;15.60;99.90
23507;DHT22;11930;53.076;18.250;2022-10-28T18:13:48;15.60;99.90
23507;DHT22;11930;53.076;18.250;2022-10-28T18:16:16;15.50;99.90
23507;DHT22;11930;53.076;18.250;2022-10-28T18:18:43;15.60;99.90
23507;DHT22;11930;53.076;18.250;2022-10-28T18:21:12;15.60;99.90
23507;DHT22;11930;53.076;18.250;2022-10-28T18:23:39;15.70;99.90
23507;DHT22;11930;53.076;18.250;2022-10-28T18:26:09;15.70;99.90
23507;DHT22;11930;53.076;18.250;2022-10-28T18:28:37;15.70;99.90
23507;DHT22;11930;53.076;18.250;2022-10-28T18:31:05;15.70;99.90
23507;DHT22;11930;53.076;18.250;2022-10-28T18:33:33;15.70;99.90